Pekin, North Dakota
Current Conditions -  °F | °C
As of 7:35 PM on Friday 26 Dec 2014 (Local Time) from KDVL Reporting Station
Clear Clear  
Wind Chill: -10°   Ceiling: Unl
Heat Index:   Visibility: 10mi
Dew Point: -6°   Wind: 6mph
Humidity: 72%   Direction: 290°WNW
Pressure: 30.18"   Gusts: NA
Location:  47.79°N, 98.33°W
Report Text: KDVL 270135Z AUTO 29005KT 10SM CLR M17/M21 A3018 RMK AO1
Loading
Personal Weather Stations






























Interactive Weather Map New forecast layout! Learn more

10-Day Weather Forecast

Advertisements
Track Severe Weather on mobile